createdAt,value
2023-03-23T15:57:56.111Z,99754.25
2023-03-23T16:00:25.154Z,99768.50
2023-03-23T16:03:02.257Z,99758.69
2023-03-23T16:05:29.416Z,99767.63
2023-03-23T16:07:56.204Z,99760.06
2023-03-23T16:10:26.361Z,99767.44
2023-03-23T16:12:53.130Z,99764.75
2023-03-23T16:15:21.350Z,99766.63
2023-03-23T16:17:48.407Z,99769.31
2023-03-23T16:20:23.424Z,99772.91
2023-03-23T16:22:53.086Z,99772.81
2023-03-23T16:25:22.483Z,99769.81
2023-03-23T16:27:52.507Z,99781.25
2023-03-23T16:30:45.676Z,99773.59
2023-03-23T16:33:19.606Z,99771.19
2023-03-23T16:35:49.522Z,99763.81
2023-03-23T16:38:20.032Z,99770.66
2023-03-23T16:40:58.445Z,99770.53
2023-03-23T16:43:27.729Z,99772.19
2023-03-23T16:45:57.000Z,99770.09
2023-03-23T16:48:23.925Z,99762.31
2023-03-23T16:50:51.786Z,99763.91
2023-03-23T16:53:19.052Z,99767.69
2023-03-23T16:55:48.331Z,99765.28
2023-03-23T16:58:17.518Z,99764.63
2023-03-23T17:00:48.006Z,99773.50
2023-03-23T17:03:16.638Z,99768.88
2023-03-23T17:05:45.165Z,99765.88
2023-03-23T17:08:12.098Z,99767.94
2023-03-23T17:10:40.098Z,99762.69
2023-03-23T17:13:07.293Z,99762.22
2023-03-23T17:15:37.079Z,99763.44
2023-03-23T17:18:04.398Z,99755.59
2023-03-23T17:20:31.488Z,99759.09
2023-03-23T17:22:59.619Z,99759.41
2023-03-23T17:25:27.622Z,99751.81
2023-03-23T17:27:54.212Z,99754.31
2023-03-23T17:30:21.203Z,99756.97
2023-03-23T17:32:48.882Z,99748.19
2023-03-23T17:35:16.478Z,99752.94
2023-03-23T17:37:43.492Z,99752.72
2023-03-23T17:40:11.041Z,99743.44
2023-03-23T17:42:37.638Z,99745.66
2023-03-23T17:45:06.055Z,99752.16
2023-03-23T17:47:33.288Z,99752.53
2023-03-23T17:49:59.931Z,99760.31
2023-03-23T17:52:26.627Z,99760.97
2023-03-23T17:54:54.042Z,99758.84
2023-03-23T17:57:21.637Z,99763.16
2023-03-23T17:59:48.335Z,99770.16
2023-03-23T18:02:15.432Z,99778.16
2023-03-23T18:04:42.532Z,99774.47
2023-03-23T18:07:09.450Z,99782.34
2023-03-23T18:09:37.824Z,99773.00
2023-03-23T18:12:05.357Z,99780.22
2023-03-23T18:14:32.283Z,99779.06
2023-03-23T18:17:00.618Z,99779.38
2023-03-23T18:19:28.854Z,99785.78
2023-03-23T18:21:55.594Z,99780.88
2023-03-23T18:24:24.021Z,99787.91
2023-03-23T18:26:51.292Z,99781.09
2023-03-23T18:29:17.958Z,99778.19
2023-03-23T18:31:44.954Z,99777.13
2023-03-23T18:34:11.910Z,99772.63
2023-03-23T18:36:38.753Z,99774.19
2023-03-23T18:39:06.490Z,99767.97
2023-03-23T18:41:33.079Z,99768.50
2023-03-23T18:43:59.686Z,99764.19
2023-03-23T18:46:26.519Z,99766.41
2023-03-23T18:48:53.663Z,99764.84
2023-03-23T18:51:21.402Z,99762.53
2023-03-23T18:53:47.990Z,99761.22
2023-03-23T18:56:16.364Z,99764.28
2023-03-23T18:58:44.332Z,99760.59
2023-03-23T19:01:14.158Z,99764.72
2023-03-23T19:03:41.410Z,99773.31
2023-03-23T19:06:25.692Z,99772.56
2023-03-23T19:08:53.579Z,99771.06
2023-03-23T19:11:24.450Z,99772.56
2023-03-23T19:14:01.628Z,99772.63
2023-03-23T19:16:36.089Z,99765.78
2023-03-23T19:19:04.343Z,99766.94
2023-03-23T19:21:32.249Z,99772.19
2023-03-23T19:23:59.516Z,99774.16
2023-03-23T19:26:36.665Z,99767.50
2023-03-23T19:29:26.236Z,99765.88
2023-03-23T19:31:55.662Z,99759.78
2023-03-23T19:34:24.051Z,99756.25
2023-03-23T19:36:56.339Z,99756.03
2023-03-23T19:39:30.951Z,99755.50
2023-03-23T19:41:58.134Z,99756.69
2023-03-23T19:44:25.462Z,99752.97
2023-03-23T19:46:52.356Z,99752.69
2023-03-23T19:49:19.031Z,99748.41
2023-03-23T19:51:45.940Z,99744.59
2023-03-23T19:54:15.629Z,99732.78
2023-03-23T19:56:43.285Z,99736.50
2023-03-23T19:59:14.904Z,99734.97
2023-03-23T20:01:43.047Z,99733.88
2023-03-23T20:04:11.237Z,99733.47
2023-03-23T20:06:38.998Z,99733.75
2023-03-23T20:09:06.811Z,99730.13
2023-03-23T20:11:34.383Z,99729.75
2023-03-23T20:14:01.440Z,99721.38
2023-03-23T20:18:59.644Z,99715.44
2023-03-23T20:21:27.529Z,99717.69
2023-03-23T20:23:56.251Z,99716.91
2023-03-23T20:26:35.662Z,99708.53
2023-03-23T20:29:02.952Z,99712.03
2023-03-23T20:31:34.286Z,99707.50
2023-03-23T20:34:08.791Z,99706.38
2023-03-23T20:36:42.372Z,99707.44
2023-03-23T20:39:16.208Z,99703.56
2023-03-23T20:41:43.733Z,99691.38
2023-03-23T20:44:16.040Z,99693.50
2023-03-23T20:46:46.726Z,99689.41
2023-03-23T20:49:15.726Z,99676.06
2023-03-23T20:51:44.884Z,99675.41
2023-03-23T20:54:14.056Z,99679.97
2023-03-23T20:56:42.651Z,99676.13
2023-03-23T20:59:10.952Z,99675.31
2023-03-23T21:01:39.655Z,99672.34
2023-03-23T21:04:14.691Z,99674.94
2023-03-23T21:06:46.169Z,99673.69
2023-03-23T21:09:15.089Z,99663.06
2023-03-23T21:11:43.282Z,99657.50
2023-03-23T21:14:11.533Z,99656.88
2023-03-23T21:16:39.505Z,99657.75
2023-03-23T21:19:06.679Z,99650.94
2023-03-23T21:21:34.229Z,99648.56
2023-03-23T21:24:01.593Z,99648.94
2023-03-23T21:26:31.197Z,99649.00
2023-03-23T21:29:01.266Z,99647.47
2023-03-23T21:31:33.408Z,99644.75
2023-03-23T21:34:00.571Z,99633.44
2023-03-23T21:36:27.692Z,99632.81
2023-03-23T21:38:54.982Z,99623.78
2023-03-23T21:41:22.215Z,99626.66
2023-03-23T21:43:50.062Z,99622.81
2023-03-23T21:46:20.627Z,99626.94
2023-03-23T21:48:51.659Z,99624.28
2023-03-23T21:51:25.608Z,99616.06
2023-03-23T21:53:54.268Z,99613.00
2023-03-23T21:56:23.197Z,99612.28
2023-03-23T21:58:51.494Z,99610.28
2023-03-23T22:01:19.130Z,99602.50
2023-03-23T22:03:45.832Z,99601.38
2023-03-23T22:06:15.764Z,99598.97
2023-03-23T22:08:44.409Z,99597.47
2023-03-23T22:11:14.185Z,99591.94
2023-03-23T22:13:42.059Z,99588.09
2023-03-23T22:16:11.532Z,99594.91
2023-03-23T22:18:38.995Z,99588.44
2023-03-23T22:21:06.980Z,99584.81
2023-03-23T22:23:36.144Z,99578.34
2023-03-23T22:26:03.753Z,99583.44
2023-03-23T22:28:31.012Z,99582.28
2023-03-23T22:31:05.846Z,99583.25
2023-03-23T22:33:33.817Z,99580.84
2023-03-23T22:36:06.137Z,99580.31
2023-03-23T22:38:39.086Z,99579.59
2023-03-23T22:41:07.632Z,99581.16
2023-03-23T22:43:35.941Z,99579.44
2023-03-23T22:46:05.004Z,99576.34
2023-03-23T22:48:32.326Z,99578.66
2023-03-23T22:50:59.176Z,99579.50
2023-03-23T22:53:26.231Z,99571.19
2023-03-23T22:55:55.142Z,99579.75
2023-03-23T22:58:22.063Z,99574.00
2023-03-23T23:00:51.296Z,99577.41
2023-03-23T23:03:18.226Z,99568.44
2023-03-23T23:05:48.341Z,99565.59
2023-03-23T23:08:18.585Z,99549.50
2023-03-23T23:10:48.015Z,99541.41
2023-03-23T23:13:16.009Z,99546.81
2023-03-23T23:15:49.836Z,99550.34
2023-03-23T23:18:17.679Z,99548.94
2023-03-23T23:20:44.967Z,99560.41
2023-03-23T23:23:13.034Z,99560.91
2023-03-23T23:25:39.708Z,99545.47
2023-03-23T23:28:07.166Z,99552.66
2023-03-23T23:30:35.100Z,99547.81
2023-03-23T23:33:02.213Z,99554.72
2023-03-23T23:35:30.676Z,99557.81
2023-03-23T23:37:57.425Z,99550.19
2023-03-23T23:40:25.208Z,99536.59
2023-03-23T23:42:52.366Z,99535.78
2023-03-23T23:45:19.373Z,99531.25
2023-03-23T23:47:46.999Z,99538.84
2023-03-23T23:50:14.820Z,99538.50
2023-03-23T23:52:42.570Z,99531.63
2023-03-23T23:55:10.850Z,99527.88
2023-03-23T23:57:38.309Z,99516.03
